createdAt,value
2019-03-18T00:01:25.178Z,66.90
2019-03-18T00:03:55.194Z,67.40
2019-03-18T00:06:25.416Z,67.90
2019-03-18T00:08:55.638Z,68.00
2019-03-18T00:11:25.963Z,67.70
2019-03-18T00:13:56.082Z,67.80
2019-03-18T00:16:26.305Z,67.60
2019-03-18T00:18:56.429Z,67.50
2019-03-18T00:21:26.968Z,67.70
2019-03-18T00:23:57.275Z,67.90
2019-03-18T00:26:40.519Z,68.20
2019-03-18T00:29:21.475Z,68.50
2019-03-18T00:31:53.233Z,69.00
2019-03-18T00:34:23.354Z,69.20
2019-03-18T00:36:54.496Z,69.30
2019-03-18T00:39:24.618Z,69.60
2019-03-18T00:41:54.839Z,69.70
2019-03-18T00:44:25.266Z,70.00
2019-03-18T00:46:55.385Z,70.40
2019-03-18T00:49:25.604Z,70.70
2019-03-18T00:51:55.725Z,71.30
2019-03-18T00:54:25.844Z,71.20
2019-03-18T00:56:55.963Z,71.40
2019-03-18T00:59:26.084Z,71.60
2019-03-18T01:01:56.714Z,71.90
2019-03-18T01:04:26.833Z,72.30
2019-03-18T01:06:57.055Z,72.40
2019-03-18T01:09:29.837Z,72.50
2019-03-18T01:12:01.492Z,72.80
2019-03-18T01:14:33.250Z,73.00
2019-03-18T01:17:03.369Z,73.50
2019-03-18T01:19:33.490Z,73.00
2019-03-18T01:22:03.711Z,73.40
2019-03-18T01:24:33.933Z,73.80
2019-03-18T01:27:04.155Z,74.80
2019-03-18T01:29:34.378Z,75.10
2019-03-18T01:32:07.362Z,75.40
2019-03-18T01:34:37.997Z,75.00
2019-03-18T01:37:09.752Z,74.50
2019-03-18T01:39:40.384Z,74.70
2019-03-18T01:42:13.167Z,74.80
2019-03-18T01:44:52.604Z,75.10
2019-03-18T01:47:22.827Z,75.90
2019-03-18T01:49:53.060Z,76.00
2019-03-18T01:52:24.294Z,76.60
2019-03-18T01:54:54.410Z,76.60
2019-03-18T01:57:24.633Z,77.20
2019-03-18T01:59:54.855Z,77.50
2019-03-18T02:02:26.612Z,77.80
2019-03-18T02:04:56.836Z,77.70
2019-03-18T02:07:27.368Z,78.10
2019-03-18T02:09:57.589Z,78.00
2019-03-18T02:12:31.892Z,78.40
2019-03-18T02:15:03.048Z,78.50
2019-03-18T02:17:33.165Z,78.80
2019-03-18T02:20:21.000Z,79.30
2019-03-18T02:22:53.245Z,79.90
2019-03-18T02:25:23.339Z,80.30
2019-03-18T02:27:53.406Z,80.50
2019-03-18T02:30:23.629Z,80.70
2019-03-18T02:32:53.861Z,81.30
2019-03-18T02:35:23.970Z,81.50
2019-03-18T02:37:54.191Z,81.30
2019-03-18T02:40:24.415Z,81.80
2019-03-18T02:42:54.637Z,81.60
2019-03-18T02:45:25.107Z,81.70
2019-03-18T02:47:55.999Z,81.80
2019-03-18T02:50:26.119Z,82.00
2019-03-18T02:52:56.240Z,81.50
2019-03-18T02:55:28.297Z,82.30
2019-03-18T02:57:58.527Z,82.90
2019-03-18T03:00:29.057Z,83.70
2019-03-18T03:03:01.020Z,83.50
2019-03-18T03:08:20.099Z,83.80
2019-03-18T03:10:50.323Z,83.10
2019-03-18T03:13:21.565Z,82.60
2019-03-18T03:15:51.791Z,82.90
2019-03-18T03:18:21.906Z,82.10
2019-03-18T03:20:53.569Z,82.00
2019-03-18T03:23:23.786Z,81.50
2019-03-18T03:25:54.422Z,81.40
2019-03-18T03:28:25.561Z,81.20
2019-03-18T03:30:55.683Z,81.10
2019-03-18T03:33:25.799Z,81.20
2019-03-18T03:35:57.866Z,81.90
2019-03-18T03:38:27.990Z,82.70
2019-03-18T03:40:59.740Z,83.50
2019-03-18T03:43:29.963Z,84.80
2019-03-18T03:46:03.357Z,85.50
2019-03-18T03:48:33.580Z,86.50
2019-03-18T03:51:03.697Z,86.20
2019-03-18T03:53:34.947Z,87.10
2019-03-18T03:56:36.607Z,87.30
2019-03-18T03:59:04.774Z,86.00
2019-03-18T04:01:34.596Z,85.90
2019-03-18T04:04:06.043Z,85.90
2019-03-18T04:06:36.066Z,86.80
2019-03-18T04:09:06.567Z,87.90
2019-03-18T04:11:39.179Z,88.00
2019-03-18T04:14:09.296Z,87.40
2019-03-18T04:16:43.974Z,87.10
2019-03-18T04:19:12.102Z,86.50
2019-03-18T04:21:41.863Z,87.00
2019-03-18T04:24:13.276Z,87.00
2019-03-18T04:26:44.162Z,87.00
2019-03-18T04:29:13.987Z,86.60
2019-03-18T04:31:43.848Z,87.10
2019-03-18T04:34:13.754Z,88.40
2019-03-18T04:36:45.629Z,89.80
2019-03-18T04:39:19.283Z,89.60
2019-03-18T04:41:49.146Z,89.90
2019-03-18T04:44:19.077Z,89.90
2019-03-18T04:46:48.928Z,90.20
2019-03-18T04:49:18.735Z,90.20
2019-03-18T04:51:50.226Z,90.00
2019-03-18T04:54:20.038Z,89.40
2019-03-18T04:56:49.967Z,87.50
2019-03-18T04:59:19.904Z,86.50
2019-03-18T05:01:49.754Z,87.60
2019-03-18T05:04:19.739Z,86.90
2019-03-18T05:06:49.625Z,86.00
2019-03-18T05:09:19.553Z,85.70
2019-03-18T05:11:51.410Z,86.80
2019-03-18T05:14:21.374Z,88.00
2019-03-18T05:16:51.254Z,88.50
2019-03-18T05:19:21.134Z,88.30
2019-03-18T05:21:51.183Z,87.80
2019-03-18T05:24:22.014Z,89.80
2019-03-18T05:26:51.942Z,89.90
2019-03-18T05:29:21.901Z,88.60
2019-03-18T05:31:51.920Z,87.50
2019-03-18T05:34:21.704Z,88.30
2019-03-18T05:36:51.595Z,90.00
2019-03-18T05:39:21.434Z,89.10
2019-03-18T05:41:51.239Z,83.70
2019-03-18T05:44:21.164Z,82.00
2019-03-18T05:46:51.887Z,82.00
2019-03-18T05:49:21.693Z,82.80
2019-03-18T05:51:51.652Z,84.90
2019-03-18T05:54:21.585Z,85.10
2019-03-18T05:56:51.431Z,85.70
2019-03-18T05:59:21.412Z,85.80
2019-03-18T06:01:51.412Z,84.90
2019-03-18T06:04:21.361Z,85.40
2019-03-18T06:06:51.587Z,82.10
2019-03-18T06:09:21.390Z,84.00
2019-03-18T06:11:51.265Z,85.40
2019-03-18T06:14:21.238Z,84.50
2019-03-18T06:16:51.259Z,85.50
2019-03-18T06:19:21.417Z,83.40
2019-03-18T06:21:51.225Z,82.80
2019-03-18T06:24:21.118Z,81.50
2019-03-18T06:26:51.023Z,80.80
2019-03-18T06:29:22.286Z,81.10
2019-03-18T06:31:56.407Z,78.80
2019-03-18T06:34:26.355Z,80.70
2019-03-18T06:36:56.235Z,81.00
2019-03-18T06:39:26.134Z,81.30
2019-03-18T06:41:56.175Z,80.00
2019-03-18T06:44:26.050Z,79.50
2019-03-18T06:46:56.111Z,79.90
2019-03-18T06:49:27.769Z,80.50
2019-03-18T06:51:57.496Z,79.30
2019-03-18T06:54:29.232Z,80.40
2019-03-18T06:56:59.159Z,80.60
2019-03-18T06:59:29.075Z,81.60
2019-03-18T07:01:59.408Z,81.20
2019-03-18T07:04:29.149Z,80.90
2019-03-18T07:06:59.024Z,81.80
2019-03-18T07:09:28.894Z,81.00
2019-03-18T07:11:58.843Z,80.40
2019-03-18T07:14:28.753Z,81.70
2019-03-18T07:16:58.694Z,82.00
2019-03-18T07:19:28.571Z,81.80
2019-03-18T07:21:58.496Z,82.00
2019-03-18T07:24:28.363Z,83.30
2019-03-18T07:27:06.487Z,84.20
2019-03-18T07:29:36.359Z,83.20
2019-03-18T07:32:06.599Z,83.50
2019-03-18T07:34:37.474Z,81.70
2019-03-18T07:37:07.292Z,82.20
2019-03-18T07:39:37.151Z,83.40
2019-03-18T07:42:08.743Z,82.40
2019-03-18T07:44:38.594Z,80.30
2019-03-18T07:47:11.841Z,80.50
2019-03-18T07:49:41.738Z,81.80
2019-03-18T07:52:11.688Z,82.10
2019-03-18T07:54:41.575Z,81.10
2019-03-18T07:57:11.382Z,80.90
2019-03-18T07:59:41.186Z,80.40
2019-03-18T08:02:11.045Z,80.90
2019-03-18T08:04:40.932Z,79.40
2019-03-18T08:07:12.411Z,81.00
2019-03-18T08:09:42.276Z,80.50
2019-03-18T08:12:12.277Z,80.10
2019-03-18T08:14:42.162Z,80.60
2019-03-18T08:17:12.034Z,80.60
2019-03-18T08:19:41.916Z,80.50
2019-03-18T08:22:13.384Z,80.90
2019-03-18T08:24:43.248Z,80.50
2019-03-18T08:27:13.103Z,79.50
2019-03-18T08:29:42.865Z,77.90
2019-03-18T08:32:12.807Z,77.80
2019-03-18T08:34:42.605Z,73.10
2019-03-18T08:37:12.543Z,72.80
2019-03-18T08:39:42.492Z,72.90
2019-03-18T08:42:12.324Z,71.10
2019-03-18T08:44:42.129Z,70.60
2019-03-18T08:47:11.942Z,70.20
2019-03-18T08:49:41.858Z,71.90
2019-03-18T08:52:11.616Z,71.90
2019-03-18T08:54:41.595Z,71.70
2019-03-18T08:57:11.388Z,68.90
2019-03-18T09:02:47.650Z,71.10
2019-03-18T09:05:17.459Z,72.00
2019-03-18T09:07:47.275Z,73.40
2019-03-18T09:10:17.835Z,73.00
2019-03-18T09:12:47.967Z,72.30
2019-03-18T09:15:17.936Z,73.20
2019-03-18T09:17:47.974Z,71.60
2019-03-18T09:20:18.998Z,73.00
2019-03-18T09:22:49.073Z,73.00
2019-03-18T09:25:18.901Z,74.80
2019-03-18T09:27:48.775Z,74.60
2019-03-18T09:30:23.124Z,73.30
2019-03-18T09:32:54.679Z,72.30
2019-03-18T09:35:24.577Z,70.70
2019-03-18T09:37:57.006Z,72.30
2019-03-18T09:40:29.374Z,73.20
2019-03-18T09:42:58.650Z,73.20
2019-03-18T09:45:28.495Z,72.10
2019-03-18T09:47:58.396Z,72.60
2019-03-18T09:50:28.272Z,72.20
2019-03-18T09:52:58.123Z,72.90
2019-03-18T09:55:28.412Z,73.50
2019-03-18T09:57:58.363Z,75.10
2019-03-18T10:00:28.474Z,74.70
2019-03-18T10:02:58.354Z,74.00
2019-03-18T10:05:28.527Z,73.70
2019-03-18T10:07:58.957Z,74.70
2019-03-18T10:10:28.851Z,73.50
2019-03-18T10:12:58.735Z,72.60
2019-03-18T10:15:28.610Z,72.80
2019-03-18T10:17:58.937Z,72.80
2019-03-18T10:20:28.831Z,71.30
2019-03-18T10:22:58.634Z,71.80
2019-03-18T10:25:30.494Z,71.90
2019-03-18T10:28:01.416Z,71.50
2019-03-18T10:30:33.895Z,72.90
2019-03-18T10:33:06.846Z,69.40
2019-03-18T10:35:36.731Z,70.70
2019-03-18T10:38:06.701Z,70.00
2019-03-18T10:40:36.577Z,71.30
2019-03-18T10:43:06.479Z,71.70
2019-03-18T10:45:36.310Z,73.60
2019-03-18T10:48:06.180Z,72.30
2019-03-18T10:50:36.095Z,71.40
2019-03-18T10:53:06.014Z,71.90
2019-03-18T10:55:35.899Z,71.30
2019-03-18T10:58:05.791Z,72.60
2019-03-18T11:00:36.738Z,72.10
2019-03-18T11:03:07.855Z,71.40
2019-03-18T11:05:37.803Z,70.70
2019-03-18T11:08:07.673Z,69.00
2019-03-18T11:10:37.545Z,69.20
2019-03-18T11:13:08.454Z,69.10
2019-03-18T11:15:42.054Z,67.90
2019-03-18T11:18:12.009Z,67.50
2019-03-18T11:20:43.522Z,67.80
2019-03-18T11:23:13.406Z,64.70
2019-03-18T11:25:43.200Z,64.00
2019-03-18T11:28:13.311Z,61.60
2019-03-18T11:30:44.759Z,61.40
2019-03-18T11:33:14.631Z,60.00
2019-03-18T11:35:44.574Z,59.20
2019-03-18T11:38:14.454Z,60.30
2019-03-18T11:40:44.336Z,58.30
2019-03-18T11:43:14.413Z,57.90
2019-03-18T11:45:44.240Z,57.70
2019-03-18T11:48:14.169Z,57.90
2019-03-18T11:50:44.121Z,58.10
2019-03-18T11:53:14.853Z,56.80
2019-03-18T11:55:45.123Z,53.40
2019-03-18T11:58:15.093Z,54.20
2019-03-18T12:00:45.037Z,54.20
2019-03-18T12:03:14.994Z,52.60
2019-03-18T12:05:45.215Z,52.70
2019-03-18T12:10:35.551Z,52.70
2019-03-18T12:13:05.687Z,50.60
2019-03-18T12:15:36.631Z,50.90
2019-03-18T12:18:08.733Z,48.90
2019-03-18T12:20:39.612Z,48.80
2019-03-18T12:23:09.631Z,49.40
2019-03-18T12:25:39.853Z,48.50
2019-03-18T12:28:10.176Z,48.80
2019-03-18T12:30:40.295Z,47.90
2019-03-18T12:33:10.621Z,48.20
2019-03-18T12:35:40.738Z,46.90
2019-03-18T12:38:10.983Z,45.70
2019-03-18T12:40:41.797Z,45.20
2019-03-18T12:43:11.917Z,46.30
2019-03-18T12:45:42.140Z,47.10
2019-03-18T12:48:12.462Z,43.70
2019-03-18T12:50:55.181Z,43.60
2019-03-18T12:53:14.240Z,44.10
2019-03-18T12:55:44.664Z,44.20
2019-03-18T12:58:14.888Z,43.60
2019-03-18T13:00:45.107Z,41.30
2019-03-18T13:03:16.966Z,39.40
2019-03-18T13:05:49.134Z,36.00
2019-03-18T13:08:19.971Z,31.50
2019-03-18T13:10:50.090Z,31.50
2019-03-18T13:13:20.313Z,34.10
2019-03-18T13:15:50.432Z,37.50
2019-03-18T13:18:20.652Z,40.80
2019-03-18T13:20:51.285Z,39.40
2019-03-18T13:23:21.404Z,38.50
2019-03-18T13:25:51.626Z,36.50
2019-03-18T13:28:21.946Z,36.70
2019-03-18T13:30:52.173Z,34.20
2019-03-18T13:33:22.401Z,31.80
2019-03-18T13:35:52.615Z,28.70
2019-03-18T13:38:22.837Z,26.60
2019-03-18T13:40:53.059Z,25.90
2019-03-18T13:43:23.281Z,26.20
2019-03-18T13:45:55.545Z,26.20
2019-03-18T13:48:26.802Z,25.30
2019-03-18T13:50:58.043Z,24.30
2019-03-18T13:53:28.366Z,25.40
2019-03-18T13:55:58.486Z,25.40
2019-03-18T13:58:28.707Z,24.30
2019-03-18T14:00:59.033Z,23.50
2019-03-18T14:03:29.357Z,25.60
2019-03-18T14:05:59.682Z,26.00
2019-03-18T14:08:29.900Z,25.60
2019-03-18T14:11:00.639Z,26.70
2019-03-18T14:13:32.396Z,24.70
2019-03-18T14:16:07.226Z,25.00
2019-03-18T14:18:37.552Z,26.80
2019-03-18T14:23:54.585Z,25.60
2019-03-18T14:26:24.910Z,25.00
2019-03-18T14:28:55.229Z,26.40
2019-03-18T14:31:25.557Z,27.30
2019-03-18T14:33:55.882Z,27.00
2019-03-18T14:36:27.741Z,26.60
2019-03-18T14:38:58.372Z,29.50
2019-03-18T14:41:28.798Z,32.20
2019-03-18T14:43:59.128Z,33.70
2019-03-18T14:46:29.651Z,35.80
2019-03-18T14:48:59.977Z,38.60
2019-03-18T14:51:30.198Z,40.10
2019-03-18T14:54:00.420Z,39.70
2019-03-18T14:56:30.438Z,40.40
2019-03-18T14:59:00.863Z,40.20
2019-03-18T15:01:30.987Z,42.20
2019-03-18T15:04:01.000Z,43.50
2019-03-18T15:06:32.860Z,44.00
2019-03-18T15:09:03.287Z,44.60
2019-03-18T15:11:33.611Z,44.40
2019-03-18T15:14:03.833Z,44.50
2019-03-18T15:16:34.159Z,44.70
2019-03-18T15:19:04.482Z,45.80
2019-03-18T15:21:37.059Z,47.20
2019-03-18T15:24:16.443Z,48.30
2019-03-18T15:26:38.734Z,48.10
2019-03-18T15:29:08.955Z,48.30
2019-03-18T15:31:41.226Z,49.40
2019-03-18T15:34:12.881Z,49.10
2019-03-18T15:36:43.229Z,49.90
2019-03-18T15:39:15.277Z,50.50
2019-03-18T15:44:27.029Z,51.30
2019-03-18T15:46:56.846Z,51.60
2019-03-18T15:49:28.547Z,52.00
2019-03-18T15:52:10.111Z,52.60
2019-03-18T15:54:30.176Z,52.50
2019-03-18T15:56:59.982Z,52.60
2019-03-18T15:59:29.908Z,53.40
2019-03-18T16:02:00.188Z,53.00
2019-03-18T16:04:31.801Z,52.80
2019-03-18T16:07:01.813Z,52.50
2019-03-18T16:09:31.707Z,53.50
2019-03-18T16:12:01.543Z,54.00
2019-03-18T16:14:31.530Z,53.80
2019-03-18T16:17:02.611Z,54.30
2019-03-18T16:19:32.581Z,54.40
2019-03-18T16:22:03.166Z,54.80
2019-03-18T16:24:33.045Z,55.60
2019-03-18T16:27:02.855Z,55.80
2019-03-18T16:29:32.717Z,56.10
2019-03-18T16:32:11.204Z,56.30
2019-03-18T16:34:36.319Z,57.00
2019-03-18T16:37:09.429Z,56.60
2019-03-18T16:39:41.075Z,55.80
2019-03-18T16:42:12.666Z,56.40
2019-03-18T16:44:44.218Z,56.20
2019-03-18T16:47:14.095Z,55.80
2019-03-18T16:49:45.927Z,55.30
2019-03-18T16:52:19.052Z,55.70
2019-03-18T16:54:48.851Z,55.80
2019-03-18T16:57:21.452Z,55.90
2019-03-18T16:59:51.270Z,56.00
2019-03-18T17:02:21.101Z,56.40
2019-03-18T17:04:50.983Z,56.00
2019-03-18T17:07:20.780Z,56.30
2019-03-18T17:09:50.591Z,56.10
2019-03-18T17:12:20.493Z,56.10
2019-03-18T17:14:50.298Z,55.90
2019-03-18T17:17:21.818Z,55.60
2019-03-18T17:19:52.147Z,55.20
2019-03-18T17:22:22.800Z,55.30
2019-03-18T17:24:52.723Z,55.20
2019-03-18T17:28:50.007Z,54.10
2019-03-18T17:31:28.319Z,53.40
2019-03-18T17:33:59.612Z,52.10
2019-03-18T17:36:31.320Z,51.50
2019-03-18T17:39:01.440Z,50.20
2019-03-18T17:41:33.812Z,50.80
2019-03-18T17:44:04.034Z,51.50
2019-03-18T17:46:34.255Z,51.70
2019-03-18T17:49:05.911Z,51.60
2019-03-18T17:51:38.718Z,51.60
2019-03-18T17:54:09.669Z,51.50
2019-03-18T17:56:39.750Z,51.30
2019-03-18T17:59:09.976Z,51.10
2019-03-18T18:01:40.195Z,51.30
2019-03-18T18:04:10.520Z,51.10
2019-03-18T18:06:40.640Z,51.50
2019-03-18T18:09:10.863Z,51.60
2019-03-18T18:11:50.820Z,51.60
2019-03-18T18:14:21.134Z,51.40
2019-03-18T18:16:51.253Z,51.30
2019-03-18T18:19:21.475Z,51.50
2019-03-18T18:21:51.799Z,51.50
2019-03-18T18:24:30.725Z,50.60
2019-03-18T18:27:00.947Z,50.40
2019-03-18T18:29:32.709Z,50.50
2019-03-18T18:32:05.899Z,50.50
2019-03-18T18:34:35.503Z,51.00
2019-03-18T18:37:05.418Z,50.90
2019-03-18T18:39:37.278Z,51.10
2019-03-18T18:42:10.472Z,51.00
2019-03-18T18:44:40.589Z,50.90
2019-03-18T18:47:10.811Z,50.30
2019-03-18T18:49:40.931Z,50.60
2019-03-18T18:52:12.150Z,51.10
2019-03-18T18:54:42.295Z,51.30
2019-03-18T18:57:14.271Z,51.70
2019-03-18T18:59:46.941Z,51.40
2019-03-18T19:02:19.893Z,51.30
2019-03-18T19:04:50.043Z,51.50
2019-03-18T19:07:20.266Z,51.80
2019-03-18T19:09:50.487Z,52.30
2019-03-18T19:12:21.118Z,52.80
2019-03-18T19:14:51.241Z,52.40
2019-03-18T19:17:21.358Z,52.20
2019-03-18T19:19:51.579Z,52.50
2019-03-18T19:22:21.891Z,52.90
2019-03-18T19:24:53.665Z,53.90
2019-03-18T19:27:24.293Z,53.70
2019-03-18T19:29:55.129Z,54.00
2019-03-18T19:32:25.455Z,53.80
2019-03-18T19:34:55.577Z,53.90
2019-03-18T19:37:25.901Z,54.30
2019-03-18T19:39:56.119Z,54.00
2019-03-18T19:42:26.444Z,54.50
2019-03-18T19:44:57.177Z,54.70
2019-03-18T19:47:27.502Z,55.00
2019-03-18T19:49:57.622Z,54.80
2019-03-18T19:52:27.845Z,54.30
2019-03-18T19:55:00.704Z,54.80
2019-03-18T19:57:31.050Z,55.20
2019-03-18T20:00:05.780Z,55.30
2019-03-18T20:02:36.000Z,55.50
2019-03-18T20:05:14.960Z,55.70
2019-03-18T20:07:39.720Z,56.10
2019-03-18T20:10:12.912Z,55.90
2019-03-18T20:12:42.929Z,56.20
2019-03-18T20:15:15.506Z,56.00
2019-03-18T20:17:45.844Z,56.20
2019-03-18T20:20:25.854Z,57.00
2019-03-18T20:22:56.140Z,56.50
2019-03-18T20:25:26.396Z,56.30
2019-03-18T20:27:56.581Z,56.20
2019-03-18T20:30:26.731Z,56.50
2019-03-18T20:32:56.888Z,56.80
2019-03-18T20:35:27.079Z,56.10
2019-03-18T20:37:58.971Z,56.00
2019-03-18T20:40:28.960Z,56.00
2019-03-18T20:42:59.210Z,56.40
2019-03-18T20:45:29.333Z,56.70
2019-03-18T20:48:00.065Z,56.40
2019-03-18T20:50:30.285Z,56.50
2019-03-18T20:53:00.514Z,56.70
2019-03-18T20:55:30.933Z,56.50
2019-03-18T20:58:01.566Z,56.80
2019-03-18T21:00:31.894Z,57.10
2019-03-18T21:03:02.219Z,56.70
2019-03-18T21:05:32.955Z,57.10
2019-03-18T21:08:04.912Z,56.90
2019-03-18T21:10:35.236Z,56.60
2019-03-18T21:13:07.097Z,56.80
2019-03-18T21:15:37.729Z,56.80
2019-03-18T21:18:07.985Z,56.70
2019-03-18T21:20:38.478Z,56.80
2019-03-18T21:23:08.801Z,56.70
2019-03-18T21:25:39.229Z,57.10
2019-03-18T21:28:09.643Z,57.10
2019-03-18T21:30:40.289Z,57.10
2019-03-18T21:33:13.553Z,57.00
2019-03-18T21:35:57.376Z,56.70
2019-03-18T21:41:50.336Z,57.30
2019-03-18T21:44:24.556Z,56.70
2019-03-18T21:47:04.353Z,56.80
2019-03-18T21:49:43.140Z,57.20
2019-03-18T21:52:16.538Z,57.10
2019-03-18T21:54:50.629Z,57.30
2019-03-18T21:57:23.661Z,57.20
2019-03-18T22:00:00.705Z,57.30
2019-03-18T22:02:32.834Z,57.30
2019-03-18T22:05:08.456Z,56.90
2019-03-18T22:07:48.502Z,57.50
2019-03-18T22:10:26.935Z,57.20
2019-03-18T22:13:03.456Z,57.60
2019-03-18T22:15:39.555Z,57.50
2019-03-18T22:18:20.521Z,57.60
2019-03-18T22:20:55.472Z,57.60
2019-03-18T22:23:30.236Z,57.90
2019-03-18T22:26:09.208Z,57.60
2019-03-18T22:28:47.006Z,58.00
2019-03-18T22:34:10.552Z,58.00
2019-03-18T22:36:42.810Z,57.80
2019-03-18T22:39:12.632Z,57.80
2019-03-18T22:41:42.563Z,58.00
2019-03-18T22:44:13.734Z,58.20
2019-03-18T22:46:43.623Z,58.70
2019-03-18T22:49:13.436Z,58.50
2019-03-18T22:51:43.362Z,58.80
2019-03-18T22:54:14.324Z,59.20
2019-03-18T22:56:45.846Z,59.10
2019-03-18T22:59:21.107Z,59.30
2019-03-18T23:01:50.985Z,59.50
2019-03-18T23:04:24.828Z,59.60
2019-03-18T23:06:54.622Z,59.50
2019-03-18T23:09:24.531Z,59.20
2019-03-18T23:11:54.722Z,59.30
2019-03-18T23:14:24.542Z,59.50
2019-03-18T23:16:54.405Z,59.10
2019-03-18T23:19:25.098Z,59.30
2019-03-18T23:21:56.048Z,59.20
2019-03-18T23:24:25.906Z,59.60
2019-03-18T23:26:55.808Z,59.50
2019-03-18T23:29:25.672Z,59.50
2019-03-18T23:31:55.567Z,60.00
2019-03-18T23:36:13.552Z,61.20
2019-03-18T23:38:43.431Z,61.50
2019-03-18T23:41:13.286Z,61.00
2019-03-18T23:43:43.160Z,60.90
2019-03-18T23:46:12.957Z,60.80
2019-03-18T23:48:42.847Z,60.90
2019-03-18T23:51:12.645Z,60.50
2019-03-18T23:53:42.546Z,60.00
2019-03-18T23:56:12.362Z,60.00
2019-03-18T23:58:42.434Z,60.50
